createdAt,value
2018-05-25T00:01:01.772Z,69.66
2018-05-25T00:03:12.854Z,69.49
2018-05-25T00:05:24.102Z,69.44
2018-05-25T00:07:35.244Z,69.40
2018-05-25T00:09:46.310Z,69.53
2018-05-25T00:11:57.417Z,69.65
2018-05-25T00:14:08.519Z,69.66
2018-05-25T00:16:19.598Z,69.93
2018-05-25T00:18:30.686Z,69.98
2018-05-25T00:20:41.784Z,70.03
2018-05-25T00:22:53.018Z,70.19
2018-05-25T00:25:04.105Z,70.12
2018-05-25T00:27:15.241Z,69.98
2018-05-25T00:29:26.338Z,70.27
2018-05-25T00:31:37.411Z,70.48
2018-05-25T00:33:48.546Z,70.61
2018-05-25T00:35:59.622Z,70.55
2018-05-25T00:38:10.710Z,70.30
2018-05-25T00:40:21.842Z,70.26
2018-05-25T00:42:33.025Z,70.28
2018-05-25T00:44:44.144Z,70.22
2018-05-25T00:46:55.355Z,70.16
2018-05-25T00:49:06.475Z,70.15
2018-05-25T00:51:17.694Z,70.11
2018-05-25T00:53:28.746Z,70.35
2018-05-25T00:55:39.830Z,70.39
2018-05-25T00:57:50.882Z,70.31
2018-05-25T01:00:02.012Z,70.27
2018-05-25T01:02:13.146Z,70.21
2018-05-25T01:04:24.386Z,70.29
2018-05-25T01:06:35.494Z,70.22
2018-05-25T01:08:46.602Z,70.38
2018-05-25T01:10:57.719Z,70.40
2018-05-25T01:13:08.807Z,70.26
2018-05-25T01:15:19.878Z,70.15
2018-05-25T01:17:30.931Z,70.55
2018-05-25T01:19:42.091Z,70.65
2018-05-25T01:21:53.218Z,70.59
2018-05-25T01:24:04.291Z,70.66
2018-05-25T01:26:15.493Z,70.48
2018-05-25T01:28:26.554Z,70.41
2018-05-25T01:30:37.687Z,70.30
2018-05-25T01:32:48.734Z,70.55
2018-05-25T01:34:59.875Z,70.48
2018-05-25T01:37:10.982Z,70.40
2018-05-25T01:39:22.155Z,70.33
2018-05-25T01:41:33.283Z,70.06
2018-05-25T01:43:44.378Z,69.72
2018-05-25T01:45:55.543Z,69.93
2018-05-25T01:48:06.618Z,70.19
2018-05-25T01:50:17.666Z,70.03
2018-05-25T01:52:28.747Z,70.15
2018-05-25T01:54:39.847Z,70.25
2018-05-25T01:56:50.918Z,70.12
2018-05-25T01:59:02.058Z,69.95
2018-05-25T02:01:13.114Z,69.97
2018-05-25T02:03:24.187Z,70.11
2018-05-25T02:05:35.429Z,70.25
2018-05-25T02:07:46.508Z,70.33
2018-05-25T02:09:57.622Z,70.35
2018-05-25T02:12:08.711Z,70.30
2018-05-25T02:14:19.910Z,70.14
2018-05-25T02:16:31.031Z,70.03
2018-05-25T02:18:42.191Z,69.79
2018-05-25T02:20:53.258Z,69.81
2018-05-25T02:23:04.322Z,69.79
2018-05-25T02:25:15.402Z,69.72
2018-05-25T02:27:26.494Z,69.59
2018-05-25T02:29:37.564Z,69.64
2018-05-25T02:31:48.627Z,69.95
2018-05-25T02:33:59.794Z,69.39
2018-05-25T02:36:10.855Z,69.51
2018-05-25T02:38:22.034Z,70.04
2018-05-25T02:40:33.099Z,70.06
2018-05-25T02:42:44.231Z,70.05
2018-05-25T02:44:55.353Z,70.27
2018-05-25T02:47:06.399Z,70.50
2018-05-25T02:49:17.581Z,70.55
2018-05-25T02:51:28.638Z,71.06
2018-05-25T02:53:39.836Z,71.30
2018-05-25T02:55:50.926Z,71.49
2018-05-25T02:58:02.043Z,71.51
2018-05-25T03:00:13.082Z,71.50
2018-05-25T03:02:24.149Z,71.18
2018-05-25T03:04:35.239Z,71.05
2018-05-25T03:06:46.333Z,70.97
2018-05-25T03:08:57.457Z,71.01
2018-05-25T03:11:08.597Z,71.00
2018-05-25T03:13:19.758Z,70.86
2018-05-25T03:15:30.845Z,70.84
2018-05-25T03:17:41.938Z,70.73
2018-05-25T03:19:53.008Z,70.78
2018-05-25T03:22:04.092Z,70.84
2018-05-25T03:24:15.158Z,70.70
2018-05-25T03:26:26.302Z,70.42
2018-05-25T03:28:37.386Z,70.43
2018-05-25T03:30:48.562Z,70.72
2018-05-25T03:32:59.701Z,70.92
2018-05-25T03:35:10.735Z,71.09
2018-05-25T03:37:21.831Z,71.11
2018-05-25T03:39:32.882Z,71.31
2018-05-25T03:41:43.967Z,71.37
2018-05-25T03:43:55.049Z,71.15
2018-05-25T03:46:06.352Z,71.01
2018-05-25T03:48:17.394Z,71.30
2018-05-25T03:50:28.515Z,71.19
2018-05-25T03:52:39.603Z,71.11
2018-05-25T03:54:50.693Z,71.49
2018-05-25T03:57:01.827Z,71.72
2018-05-25T03:59:25.196Z,71.63
2018-05-25T04:01:48.758Z,71.70
2018-05-25T04:04:00.851Z,71.88
2018-05-25T04:06:11.946Z,71.81
2018-05-25T04:08:23.047Z,71.92
2018-05-25T04:10:34.430Z,72.15
2018-05-25T04:12:45.572Z,72.14
2018-05-25T04:14:56.679Z,72.58
2018-05-25T04:17:07.850Z,72.41
2018-05-25T04:19:18.934Z,72.24
2018-05-25T04:21:30.199Z,71.94
2018-05-25T04:23:41.395Z,71.81
2018-05-25T04:25:52.462Z,71.66
2018-05-25T04:28:03.566Z,71.56
2018-05-25T04:30:14.650Z,71.40
2018-05-25T04:32:25.756Z,71.13
2018-05-25T04:34:36.850Z,70.78
2018-05-25T04:36:47.999Z,70.74
2018-05-25T04:38:59.096Z,70.60
2018-05-25T04:41:10.207Z,70.56
2018-05-25T04:43:21.263Z,70.29
2018-05-25T04:45:32.350Z,69.91
2018-05-25T04:47:43.458Z,69.46
2018-05-25T04:49:54.554Z,69.27
2018-05-25T04:52:05.666Z,68.97
2018-05-25T04:54:16.855Z,68.87
2018-05-25T04:56:28.010Z,68.32
2018-05-25T04:58:39.059Z,68.24
2018-05-25T05:00:50.154Z,68.14
2018-05-25T05:03:01.290Z,67.78
2018-05-25T05:05:12.377Z,67.69
2018-05-25T05:07:23.431Z,67.34
2018-05-25T05:09:34.534Z,67.19
2018-05-25T05:11:45.698Z,66.40
2018-05-25T05:13:56.945Z,66.19
2018-05-25T05:16:08.147Z,66.22
2018-05-25T05:18:19.221Z,66.21
2018-05-25T05:20:30.498Z,66.29
2018-05-25T05:22:41.550Z,66.12
2018-05-25T05:24:52.618Z,65.94
2018-05-25T05:27:03.678Z,65.38
2018-05-25T05:29:14.741Z,64.87
2018-05-25T05:31:25.871Z,64.37
2018-05-25T05:33:37.148Z,64.00
2018-05-25T05:35:48.313Z,64.05
2018-05-25T05:37:59.330Z,63.67
2018-05-25T05:40:10.466Z,63.38
2018-05-25T05:42:21.555Z,63.31
2018-05-25T05:44:32.608Z,62.41
2018-05-25T05:46:43.654Z,61.57
2018-05-25T05:48:54.782Z,61.27
2018-05-25T05:51:05.877Z,61.38
2018-05-25T05:53:17.110Z,61.32
2018-05-25T05:55:28.267Z,60.61
2018-05-25T05:57:39.335Z,60.40
2018-05-25T05:59:50.409Z,60.12
2018-05-25T06:02:01.502Z,60.75
2018-05-25T06:04:12.644Z,60.45
2018-05-25T06:06:23.706Z,59.67
2018-05-25T06:08:34.885Z,58.22
2018-05-25T06:10:46.061Z,58.97
2018-05-25T06:12:57.221Z,59.85
2018-05-25T06:15:08.406Z,59.01
2018-05-25T06:17:19.526Z,57.72
2018-05-25T06:19:30.742Z,57.60
2018-05-25T06:21:41.830Z,58.20
2018-05-25T06:23:52.927Z,58.60
2018-05-25T06:26:04.019Z,57.25
2018-05-25T06:28:15.078Z,56.26
2018-05-25T06:30:26.354Z,56.51
2018-05-25T06:32:37.417Z,55.42
2018-05-25T06:34:48.764Z,55.17
2018-05-25T06:36:59.825Z,56.82
2018-05-25T06:39:10.945Z,56.40
2018-05-25T06:41:22.024Z,53.55
2018-05-25T06:43:33.095Z,53.20
2018-05-25T06:45:44.218Z,52.71
2018-05-25T06:47:55.286Z,52.08
2018-05-25T06:50:06.515Z,52.09
2018-05-25T06:52:17.634Z,51.46
2018-05-25T06:54:28.761Z,50.83
2018-05-25T06:56:39.815Z,50.83
2018-05-25T06:58:50.930Z,50.67
2018-05-25T07:01:02.002Z,50.55
2018-05-25T07:03:13.111Z,49.56
2018-05-25T07:05:24.307Z,49.69
2018-05-25T07:07:35.374Z,49.17
2018-05-25T07:09:46.531Z,48.82
2018-05-25T07:11:57.606Z,49.18
2018-05-25T07:14:08.930Z,48.76
2018-05-25T07:16:20.090Z,48.11
2018-05-25T07:18:31.154Z,48.15
2018-05-25T07:20:42.224Z,47.73
2018-05-25T07:22:53.282Z,47.57
2018-05-25T07:25:04.390Z,47.78
2018-05-25T07:27:15.470Z,48.06
2018-05-25T07:29:26.707Z,47.28
2018-05-25T07:31:37.772Z,46.19
2018-05-25T07:33:48.841Z,46.37
2018-05-25T07:35:59.942Z,46.77
2018-05-25T07:38:10.996Z,46.10
2018-05-25T07:40:22.118Z,45.63
2018-05-25T07:42:33.186Z,45.34
2018-05-25T07:44:44.310Z,46.49
2018-05-25T07:46:55.376Z,46.76
2018-05-25T07:49:06.562Z,46.04
2018-05-25T07:51:17.642Z,46.21
2018-05-25T07:53:28.762Z,46.95
2018-05-25T07:55:39.858Z,46.11
2018-05-25T07:57:50.932Z,46.27
2018-05-25T08:00:02.052Z,46.14
2018-05-25T08:02:13.124Z,47.19
2018-05-25T08:04:24.182Z,46.29
2018-05-25T08:06:35.343Z,46.90
2018-05-25T08:08:46.386Z,45.41
2018-05-25T08:10:57.494Z,48.11
2018-05-25T08:13:08.542Z,47.44
2018-05-25T08:15:19.591Z,46.55
2018-05-25T08:17:30.710Z,45.95
2018-05-25T08:19:41.801Z,47.15
2018-05-25T08:21:52.986Z,47.45
2018-05-25T08:24:04.003Z,46.70
2018-05-25T08:26:15.234Z,46.88
2018-05-25T08:28:26.367Z,48.69
2018-05-25T08:30:37.455Z,47.12
2018-05-25T08:32:48.550Z,46.15
2018-05-25T08:35:01.621Z,45.43
2018-05-25T08:37:12.717Z,46.07
2018-05-25T08:39:23.778Z,45.22
2018-05-25T08:41:34.931Z,45.66
2018-05-25T08:43:46.027Z,48.20
2018-05-25T08:45:57.106Z,46.51
2018-05-25T08:48:08.238Z,44.08
2018-05-25T08:50:19.306Z,44.30
2018-05-25T08:52:30.438Z,45.25
2018-05-25T08:54:41.536Z,44.87
2018-05-25T08:56:52.654Z,46.91
2018-05-25T08:59:03.770Z,45.29
2018-05-25T09:01:14.933Z,45.11
2018-05-25T09:03:26.010Z,45.19
2018-05-25T09:05:37.150Z,47.23
2018-05-25T09:07:48.203Z,45.21
2018-05-25T09:09:59.297Z,46.75
2018-05-25T09:12:10.405Z,44.99
2018-05-25T09:14:21.531Z,45.65
2018-05-25T09:16:32.799Z,44.54
2018-05-25T09:18:43.915Z,43.83
2018-05-25T09:20:55.126Z,44.32
2018-05-25T09:23:06.199Z,43.40
2018-05-25T09:25:17.350Z,43.35
2018-05-25T09:27:28.405Z,43.83
2018-05-25T09:29:39.476Z,43.84
2018-05-25T09:31:50.621Z,44.46
2018-05-25T09:34:01.695Z,44.12
2018-05-25T09:36:12.849Z,43.56
2018-05-25T09:38:23.967Z,44.38
2018-05-25T09:40:35.126Z,43.73
2018-05-25T09:42:46.193Z,42.44
2018-05-25T09:44:57.287Z,42.68
2018-05-25T09:47:08.358Z,42.13
2018-05-25T09:49:19.444Z,42.34
2018-05-25T09:51:30.527Z,43.18
2018-05-25T09:53:41.655Z,43.06
2018-05-25T09:55:52.803Z,41.76
2018-05-25T09:58:03.963Z,42.02
2018-05-25T10:00:15.111Z,42.39
2018-05-25T10:02:26.245Z,41.67
2018-05-25T10:04:37.334Z,42.96
2018-05-25T10:06:48.419Z,42.86
2018-05-25T10:08:59.527Z,42.87
2018-05-25T10:11:10.618Z,41.78
2018-05-25T10:13:21.814Z,40.86
2018-05-25T10:15:33.003Z,43.01
2018-05-25T10:17:44.210Z,43.50
2018-05-25T10:19:55.351Z,41.13
2018-05-25T10:22:06.438Z,42.26
2018-05-25T10:24:17.544Z,43.17
2018-05-25T10:26:28.654Z,42.86
2018-05-25T10:28:39.743Z,43.00
2018-05-25T10:30:50.982Z,42.32
2018-05-25T10:33:02.070Z,44.04
2018-05-25T10:35:13.253Z,41.99
2018-05-25T10:37:24.359Z,40.20
2018-05-25T10:39:35.435Z,43.01
2018-05-25T10:41:46.575Z,43.74
2018-05-25T10:43:57.682Z,41.87
2018-05-25T10:46:08.814Z,40.80
2018-05-25T10:48:19.927Z,40.19
2018-05-25T10:50:31.048Z,39.20
2018-05-25T10:52:42.163Z,38.98
2018-05-25T10:54:53.439Z,40.87
2018-05-25T10:57:04.555Z,40.75
2018-05-25T10:59:15.689Z,39.73
2018-05-25T11:01:26.754Z,39.35
2018-05-25T11:03:37.890Z,39.91
2018-05-25T11:05:48.955Z,40.45
2018-05-25T11:08:00.066Z,38.79
2018-05-25T11:10:11.185Z,38.34
2018-05-25T11:12:22.343Z,40.55
2018-05-25T11:14:33.488Z,38.76
2018-05-25T11:16:44.626Z,39.17
2018-05-25T11:18:55.787Z,39.11
2018-05-25T11:21:06.910Z,42.68
2018-05-25T11:23:18.002Z,41.57
2018-05-25T11:25:29.134Z,40.79
2018-05-25T11:27:40.239Z,41.56
2018-05-25T11:29:51.355Z,42.76
2018-05-25T11:32:02.514Z,40.63
2018-05-25T11:34:13.656Z,41.76
2018-05-25T11:36:24.727Z,42.94
2018-05-25T11:38:35.933Z,40.76
2018-05-25T11:40:46.988Z,42.97
2018-05-25T11:42:58.059Z,42.34
2018-05-25T11:45:09.157Z,41.07
2018-05-25T11:47:20.264Z,38.31
2018-05-25T11:49:31.374Z,38.55
2018-05-25T11:51:42.448Z,38.69
2018-05-25T11:53:53.675Z,38.00
2018-05-25T11:56:04.774Z,38.62
2018-05-25T11:58:15.913Z,39.62
2018-05-25T12:00:27.004Z,40.36
2018-05-25T12:02:38.157Z,39.60
2018-05-25T12:04:49.239Z,38.56
2018-05-25T12:07:00.316Z,38.75
2018-05-25T12:09:11.451Z,38.42
2018-05-25T12:11:22.544Z,38.41
2018-05-25T12:13:33.718Z,37.59
2018-05-25T12:15:44.780Z,39.04
2018-05-25T12:17:55.919Z,38.09
2018-05-25T12:20:07.030Z,39.43
2018-05-25T12:22:18.116Z,38.36
2018-05-25T12:24:29.239Z,39.30
2018-05-25T12:26:40.330Z,37.62
2018-05-25T12:28:51.458Z,38.74
2018-05-25T12:31:02.581Z,39.06
2018-05-25T12:33:13.715Z,40.31
2018-05-25T12:35:24.902Z,39.52
2018-05-25T12:37:36.250Z,38.80
2018-05-25T12:39:47.329Z,38.29
2018-05-25T12:41:58.419Z,38.65
2018-05-25T12:44:09.506Z,41.13
2018-05-25T12:46:20.675Z,38.59
2018-05-25T12:48:31.827Z,39.65
2018-05-25T12:50:42.942Z,41.85
2018-05-25T12:52:54.059Z,39.56
2018-05-25T12:55:05.151Z,38.50
2018-05-25T12:57:16.346Z,39.67
2018-05-25T12:59:27.475Z,39.87
2018-05-25T13:01:38.584Z,39.33
2018-05-25T13:03:49.658Z,39.93
2018-05-25T13:06:00.737Z,38.85
2018-05-25T13:08:11.955Z,39.99
2018-05-25T13:10:23.128Z,39.07
2018-05-25T13:12:34.343Z,38.47
2018-05-25T13:14:45.544Z,37.60
2018-05-25T13:16:56.801Z,37.86
2018-05-25T13:19:07.895Z,37.88
2018-05-25T13:21:19.094Z,37.09
2018-05-25T13:23:30.331Z,36.29
2018-05-25T13:25:41.395Z,38.57
2018-05-25T13:27:52.518Z,39.55
2018-05-25T13:30:03.615Z,38.91
2018-05-25T13:32:14.714Z,37.81
2018-05-25T13:34:25.855Z,37.40
2018-05-25T13:36:36.981Z,38.50
2018-05-25T13:38:48.115Z,37.38
2018-05-25T13:40:59.256Z,37.57
2018-05-25T13:43:10.374Z,37.32
2018-05-25T13:45:21.521Z,38.17
2018-05-25T13:47:32.619Z,38.61
2018-05-25T13:49:43.711Z,37.97
2018-05-25T13:51:54.818Z,38.63
2018-05-25T13:54:06.010Z,40.02
2018-05-25T13:56:17.126Z,39.74
2018-05-25T13:58:28.256Z,40.54
2018-05-25T14:00:39.367Z,40.79
2018-05-25T14:02:50.543Z,39.96
2018-05-25T14:05:01.616Z,39.96
2018-05-25T14:07:12.703Z,40.05
2018-05-25T14:09:23.771Z,39.66
2018-05-25T14:11:34.798Z,39.97
2018-05-25T14:13:46.078Z,39.49
2018-05-25T14:15:57.141Z,39.18
2018-05-25T14:18:08.232Z,39.81
2018-05-25T14:20:19.414Z,40.27
2018-05-25T14:22:30.584Z,40.46
2018-05-25T14:24:41.598Z,41.07
2018-05-25T14:26:52.678Z,40.32
2018-05-25T14:29:03.811Z,41.27
2018-05-25T14:31:15.859Z,40.97
2018-05-25T14:33:26.947Z,40.66
2018-05-25T14:35:38.057Z,40.74
2018-05-25T14:37:49.171Z,40.43
2018-05-25T14:40:00.295Z,41.14
2018-05-25T14:42:11.442Z,40.87
2018-05-25T14:44:22.619Z,40.28
2018-05-25T14:46:33.797Z,41.00
2018-05-25T14:48:44.896Z,40.63
2018-05-25T14:50:55.994Z,41.81
2018-05-25T14:53:07.086Z,41.14
2018-05-25T14:55:18.311Z,40.91
2018-05-25T14:57:29.457Z,40.50
2018-05-25T14:59:40.550Z,40.10
2018-05-25T15:01:51.638Z,40.47
2018-05-25T15:04:02.815Z,41.58
2018-05-25T15:06:14.138Z,41.82
2018-05-25T15:08:25.239Z,41.68
2018-05-25T15:10:36.453Z,41.20
2018-05-25T15:12:47.630Z,41.52
2018-05-25T15:14:58.755Z,42.10
2018-05-25T15:17:09.902Z,41.17
2018-05-25T15:19:21.020Z,41.04
2018-05-25T15:21:32.148Z,41.93
2018-05-25T15:23:43.260Z,41.68
2018-05-25T15:25:54.386Z,40.76
2018-05-25T15:28:05.454Z,40.29
2018-05-25T15:30:16.583Z,40.91
2018-05-25T15:32:27.727Z,40.72
2018-05-25T15:34:38.826Z,41.67
2018-05-25T15:36:49.939Z,42.02
2018-05-25T15:39:01.012Z,41.49
2018-05-25T15:41:12.090Z,41.10
2018-05-25T15:43:23.193Z,41.27
2018-05-25T15:45:34.489Z,40.85
2018-05-25T15:47:45.702Z,41.14
2018-05-25T15:49:56.873Z,41.29
2018-05-25T15:52:07.946Z,41.67
2018-05-25T15:54:19.083Z,41.50
2018-05-25T15:56:30.176Z,40.63
2018-05-25T15:58:41.264Z,40.32
2018-05-25T16:00:52.363Z,41.37
2018-05-25T16:03:03.491Z,42.05
2018-05-25T16:05:14.750Z,42.16
2018-05-25T16:07:25.866Z,42.17
2018-05-25T16:09:36.994Z,42.00
2018-05-25T16:11:48.267Z,42.81
2018-05-25T16:13:59.350Z,42.35
2018-05-25T16:16:10.498Z,41.57
2018-05-25T16:18:21.618Z,41.73
2018-05-25T16:20:32.735Z,41.52
2018-05-25T16:22:43.810Z,42.53
2018-05-25T16:24:54.931Z,41.55
2018-05-25T16:27:06.136Z,42.83
2018-05-25T16:29:17.277Z,41.61
2018-05-25T16:31:28.582Z,41.60
2018-05-25T16:33:49.584Z,41.79
2018-05-25T16:36:00.875Z,42.21
2018-05-25T16:38:12.142Z,42.02
2018-05-25T16:40:23.544Z,42.25
2018-05-25T16:42:34.747Z,43.06
2018-05-25T16:44:45.868Z,42.56
2018-05-25T16:46:57.098Z,41.13
2018-05-25T16:49:08.515Z,41.23
2018-05-25T16:51:19.650Z,41.52
2018-05-25T16:53:30.905Z,41.06
2018-05-25T16:55:42.028Z,42.36
2018-05-25T16:57:53.139Z,41.82
2018-05-25T17:00:04.247Z,41.62
2018-05-25T17:02:15.411Z,42.21
2018-05-25T17:04:26.583Z,41.39
2018-05-25T17:06:38.487Z,40.44
2018-05-25T17:08:49.616Z,41.08
2018-05-25T17:11:00.739Z,41.82
2018-05-25T17:13:11.832Z,41.02
2018-05-25T17:15:24.264Z,42.47
2018-05-25T17:17:35.379Z,42.66
2018-05-25T17:19:46.446Z,42.71
2018-05-25T17:21:57.544Z,42.96
2018-05-25T17:24:08.652Z,43.33
2018-05-25T17:26:19.783Z,43.31
2018-05-25T17:28:30.905Z,43.47
2018-05-25T17:30:42.678Z,43.62
2018-05-25T17:32:53.765Z,43.84
2018-05-25T17:35:05.169Z,44.15
2018-05-25T17:37:16.345Z,44.32
2018-05-25T17:39:28.642Z,44.02
2018-05-25T17:41:39.767Z,43.67
2018-05-25T17:43:50.900Z,44.02
2018-05-25T17:46:02.028Z,44.58
2018-05-25T17:48:17.171Z,44.82
2018-05-25T17:50:28.421Z,44.74
2018-05-25T17:52:40.886Z,44.66
2018-05-25T17:54:52.028Z,45.01
2018-05-25T17:57:03.275Z,45.15
2018-05-25T17:59:14.403Z,45.13
2018-05-25T18:01:25.528Z,45.40
2018-05-25T18:03:37.984Z,45.59
2018-05-25T18:05:49.128Z,45.73
2018-05-25T18:08:00.272Z,45.75
2018-05-25T18:10:11.461Z,45.84
2018-05-25T18:12:22.660Z,45.96
2018-05-25T18:14:33.860Z,46.08
2018-05-25T18:16:44.999Z,46.20
2018-05-25T18:18:56.108Z,46.41
2018-05-25T18:21:07.236Z,46.48
2018-05-25T18:23:18.423Z,46.67
2018-05-25T18:25:29.562Z,46.69
2018-05-25T18:27:40.920Z,46.67
2018-05-25T18:29:52.023Z,46.93
2018-05-25T18:32:03.965Z,47.03
2018-05-25T18:34:15.143Z,47.31
2018-05-25T18:36:26.203Z,47.72
2018-05-25T18:38:37.363Z,48.07
2018-05-25T18:40:50.447Z,48.16
2018-05-25T18:43:01.759Z,48.98
2018-05-25T18:45:12.941Z,49.17
2018-05-25T18:47:24.098Z,49.18
2018-05-25T18:49:35.292Z,49.29
2018-05-25T18:51:46.442Z,49.54
2018-05-25T18:54:09.771Z,49.67
2018-05-25T18:56:21.100Z,50.12
2018-05-25T18:58:32.174Z,50.33
2018-05-25T19:00:43.347Z,50.03
2018-05-25T19:02:56.561Z,49.74
2018-05-25T19:05:07.964Z,49.30
2018-05-25T19:07:19.135Z,48.83
2018-05-25T19:09:30.289Z,48.79
2018-05-25T19:11:41.475Z,48.70
2018-05-25T19:13:52.625Z,48.59
2018-05-25T19:16:03.762Z,48.73
2018-05-25T19:18:14.938Z,49.11
2018-05-25T19:20:26.056Z,49.70
2018-05-25T19:22:37.250Z,50.31
2018-05-25T19:24:48.347Z,51.10
2018-05-25T19:26:59.495Z,52.07
2018-05-25T19:29:10.617Z,52.37
2018-05-25T19:31:21.731Z,52.30
2018-05-25T19:33:32.859Z,53.10
2018-05-25T19:35:43.967Z,53.21
2018-05-25T19:37:55.140Z,53.47
2018-05-25T19:40:06.267Z,53.81
2018-05-25T19:42:17.530Z,54.22
2018-05-25T19:44:28.693Z,54.57
2018-05-25T19:46:39.836Z,54.55
2018-05-25T19:48:51.007Z,54.52
2018-05-25T19:51:02.133Z,54.01
2018-05-25T19:53:13.264Z,53.72
2018-05-25T19:55:24.376Z,52.96
2018-05-25T19:57:35.604Z,52.59
2018-05-25T19:59:46.668Z,53.43
2018-05-25T20:01:57.962Z,53.18
2018-05-25T20:04:09.153Z,53.15
2018-05-25T20:06:20.246Z,53.17
2018-05-25T20:08:31.377Z,53.44
2018-05-25T20:10:42.447Z,53.66
2018-05-25T20:12:53.709Z,53.42
2018-05-25T20:15:04.827Z,53.28
2018-05-25T20:17:16.009Z,53.21
2018-05-25T20:19:27.094Z,53.15
2018-05-25T20:21:38.146Z,53.20
2018-05-25T20:23:49.325Z,53.46
2018-05-25T20:26:00.406Z,53.20
2018-05-25T20:28:11.550Z,53.43
2018-05-25T20:30:22.671Z,53.06
2018-05-25T20:32:33.803Z,52.97
2018-05-25T20:34:44.884Z,52.96
2018-05-25T20:36:55.963Z,52.72
2018-05-25T20:39:07.046Z,52.80
2018-05-25T20:41:18.164Z,52.68
2018-05-25T20:43:29.440Z,52.81
2018-05-25T20:45:40.551Z,52.75
2018-05-25T20:47:51.654Z,52.81
2018-05-25T20:50:02.720Z,52.90
2018-05-25T20:52:13.791Z,53.08
2018-05-25T20:54:24.886Z,53.24
2018-05-25T20:56:35.989Z,53.62
2018-05-25T20:58:47.102Z,53.18
2018-05-25T21:00:58.244Z,53.20
2018-05-25T21:03:09.390Z,53.05
2018-05-25T21:05:21.577Z,52.81
2018-05-25T21:07:32.693Z,52.92
2018-05-25T21:09:43.898Z,53.24
2018-05-25T21:11:54.989Z,53.43
2018-05-25T21:14:06.186Z,53.68
2018-05-25T21:16:17.315Z,53.86
2018-05-25T21:18:28.422Z,54.38
2018-05-25T21:20:41.303Z,54.70
2018-05-25T21:22:52.571Z,54.05
2018-05-25T21:25:03.753Z,53.64
2018-05-25T21:27:14.899Z,53.76
2018-05-25T21:29:26.024Z,53.85
2018-05-25T21:31:37.945Z,53.80
2018-05-25T21:33:49.094Z,54.18
2018-05-25T21:36:00.227Z,54.40
2018-05-25T21:38:11.360Z,54.58
2018-05-25T21:40:22.476Z,54.74
2018-05-25T21:42:33.866Z,54.85
2018-05-25T21:44:45.003Z,55.01
2018-05-25T21:46:56.297Z,55.28
2018-05-25T21:49:07.471Z,55.65
2018-05-25T21:51:18.616Z,55.74
2018-05-25T21:53:29.770Z,56.05
2018-05-25T21:55:40.911Z,56.04
2018-05-25T21:57:52.168Z,56.07
2018-05-25T22:00:03.347Z,56.19
2018-05-25T22:02:14.528Z,56.38
2018-05-25T22:04:25.706Z,56.63
2018-05-25T22:06:36.829Z,57.15
2018-05-25T22:08:47.956Z,57.39
2018-05-25T22:10:59.114Z,57.19
2018-05-25T22:13:10.316Z,57.30
2018-05-25T22:15:21.562Z,57.34
2018-05-25T22:17:32.711Z,57.46
2018-05-25T22:19:43.933Z,57.67
2018-05-25T22:21:55.057Z,57.99
2018-05-25T22:24:06.244Z,58.36
2018-05-25T22:26:17.385Z,58.77
2018-05-25T22:28:28.516Z,58.61
2018-05-25T22:30:39.691Z,58.63
2018-05-25T22:32:50.832Z,58.60
2018-05-25T22:35:02.050Z,58.68
2018-05-25T22:37:13.324Z,58.96
2018-05-25T22:39:24.647Z,58.93
2018-05-25T22:41:35.880Z,59.02
2018-05-25T22:43:58.993Z,59.33
2018-05-25T22:46:22.196Z,59.35
2018-05-25T22:48:45.450Z,59.25
2018-05-25T22:51:08.769Z,59.29
2018-05-25T22:53:25.703Z,59.63
2018-05-25T22:55:36.788Z,59.65
2018-05-25T22:57:48.058Z,59.60
2018-05-25T22:59:59.196Z,59.64
2018-05-25T23:02:10.345Z,60.12
2018-05-25T23:04:21.464Z,59.90
2018-05-25T23:06:32.593Z,59.68
2018-05-25T23:08:43.725Z,59.42
2018-05-25T23:10:54.889Z,59.23
2018-05-25T23:13:06.133Z,59.19
2018-05-25T23:15:17.241Z,59.28
2018-05-25T23:17:28.427Z,59.23
2018-05-25T23:19:39.684Z,59.14
2018-05-25T23:21:50.796Z,59.13
2018-05-25T23:24:01.921Z,59.13
2018-05-25T23:26:13.037Z,59.40
2018-05-25T23:28:24.147Z,59.61
2018-05-25T23:30:35.291Z,59.73
2018-05-25T23:32:46.457Z,59.87
2018-05-25T23:34:57.707Z,59.63
2018-05-25T23:37:08.839Z,60.23
2018-05-25T23:39:20.083Z,60.79
2018-05-25T23:41:31.207Z,60.71
2018-05-25T23:43:42.428Z,60.54
2018-05-25T23:45:53.632Z,60.46
2018-05-25T23:48:04.736Z,60.33
2018-05-25T23:50:15.884Z,60.30
2018-05-25T23:52:27.025Z,60.23
2018-05-25T23:54:38.196Z,60.52
2018-05-25T23:56:49.372Z,60.63
2018-05-25T23:59:00.559Z,60.72
